Impacts TAF Board INFO
FOR SITUATIONAL AWARENESS. NOT TO BE USED FOR FLIGHT PLANNING PURPOSES.
IDs:

KDHN - Dothan Rgnl, AL, US

Issued at 1123 UTC 20 May 2018
Updated at 1220 UTC 20 May 2018
Potential Impact None Slight Moderate High
Time1153Z 20/13Z 20/14Z 20/15Z 20/16Z 20/17Z 20/18Z 20/19Z 20/20Z 20/21Z 20/22Z 20/23Z 21/00Z 21/01Z>>
Type OBS PRVL PRVL PRVL PRVL PRVL PRVL PRVL PRVL PRVL PRVL PRVL PRVL PRVL
VIS 5 6 6 6 6 6 >6 >6 >6 >6 >6 >6 >6 >6
CIG -- 80 80 80 80 80 50 50 50 50 50 50 25 25
Cover FEW BKN BKN BKN BKN BKN BKN BKN BKN BKN BKN BKN BKN BKN
FltCat MVFR VFR VFR VFR VFR VFR VFR VFR VFR VFR VFR VFR MVFR MVFR
WX BR -SHRA BR -SHRA BR -SHRA BR -SHRA BR -SHRA BR -TSRA -TSRA -TSRA -TSRA -TSRA -TSRA -SHRA -SHRA
WDir VRB VRB VRB VRB VRB VRB 90 90 90 90 90 90 100 100
WSpd 0 4 4 4 4 4 7 7 7 7 7 7 4 4
WGst -- -- -- -- -- -- -- -- -- -- -- -- -- --

Raw TAF
KDHN 201123Z 2012/2112 VRB04KT 6SM -SHRA BR SCT015 BKN080
  FM201800 09007KT P6SM -TSRA BKN050CB
  FM210000 10004KT P6SM -SHRA BKN025


Raw METAR
KDHN 201153Z AUTO 00000KT 5SM BR FEW120 23/22 A3012 RMK AO2 RAB03E21 SLP193 P0000 60000 T02330217 10239 20222 50008
KDHN 201053Z AUTO 12003KT 6SM BR FEW070 OVC090 23/21 A3012 RMK AO2 RAB34E51 SLP194 P0000 T02280211
KDHN 200953Z AUTO 00000KT 6SM BR OVC080 23/21 A3011 RMK AO2 SLP189 T02280211

METAR Board
Radar Display
Forecast Discussion

FOR SITUATIONAL AWARENESS. NOT TO BE USED FOR FLIGHT PLANNING PURPOSES.